createdAt,value
2018-06-27T00:01:20.361Z,97713.42
2018-06-27T00:04:02.488Z,97716.22
2018-06-27T00:15:26.103Z,97717.72
2018-06-27T00:20:55.920Z,97711.12
2018-06-27T00:26:36.525Z,97705.41
2018-06-27T00:31:52.204Z,97708.48
2018-06-27T00:34:21.960Z,97717.39
2018-06-27T00:36:51.618Z,97703.84
2018-06-27T00:39:21.240Z,97704.52
2018-06-27T00:41:51.171Z,97707.61
2018-06-27T00:44:21.323Z,97710.88
2018-06-27T00:46:51.188Z,97709.41
2018-06-27T00:49:21.226Z,97704.30
2018-06-27T00:51:51.008Z,97704.67
2018-06-27T00:54:20.705Z,97703.82
2018-06-27T00:56:50.406Z,97706.19
2018-06-27T00:59:19.999Z,97701.17
2018-06-27T01:01:49.709Z,97703.48
2018-06-27T01:04:19.424Z,97698.41
2018-06-27T01:06:49.063Z,97690.53
2018-06-27T01:09:18.745Z,97694.14
2018-06-27T01:11:48.534Z,97691.56
2018-06-27T01:14:18.369Z,97689.74
2018-06-27T01:16:48.371Z,97687.02
2018-06-27T01:19:18.357Z,97691.85
2018-06-27T01:21:49.234Z,97685.64
2018-06-27T01:24:19.251Z,97690.39
2018-06-27T01:26:48.964Z,97686.64
2018-06-27T01:29:18.992Z,97690.25
2018-06-27T01:31:49.289Z,97690.80
2018-06-27T01:34:19.132Z,97693.84
2018-06-27T01:36:49.012Z,97693.91
2018-06-27T01:39:19.100Z,97700.92
2018-06-27T01:41:49.129Z,97702.26
2018-06-27T01:44:19.101Z,97700.05
2018-06-27T01:46:49.193Z,97702.09
2018-06-27T01:49:19.462Z,97698.63
2018-06-27T01:51:49.157Z,97700.41
2018-06-27T01:54:19.266Z,97706.73
2018-06-27T01:56:49.233Z,97696.23
2018-06-27T01:59:19.435Z,97696.91
2018-06-27T02:01:49.153Z,97678.92
2018-06-27T02:04:19.178Z,97684.45
2018-06-27T02:06:48.849Z,97679.53
2018-06-27T02:09:18.585Z,97678.28
2018-06-27T02:11:48.282Z,97675.84
2018-06-27T02:14:17.895Z,97669.97
2018-06-27T02:16:47.656Z,97665.75
2018-06-27T02:19:17.326Z,97663.99
2018-06-27T02:21:47.065Z,97675.98
2018-06-27T02:24:16.808Z,97675.98
2018-06-27T02:26:46.505Z,97667.45
2018-06-27T02:29:16.212Z,97665.73
2018-06-27T02:31:45.936Z,97665.66
2018-06-27T02:34:15.934Z,97669.27
2018-06-27T02:36:45.592Z,97668.06
2018-06-27T02:39:15.340Z,97668.95
2018-06-27T02:41:44.979Z,97668.37
2018-06-27T02:44:14.608Z,97659.98
2018-06-27T02:46:44.312Z,97659.70
2018-06-27T02:49:14.001Z,97665.28
2018-06-27T02:51:43.668Z,97668.97
2018-06-27T02:54:13.397Z,97667.94
2018-06-27T02:56:43.103Z,97671.63
2018-06-27T02:59:13.233Z,97671.55
2018-06-27T03:01:43.040Z,97672.81
2018-06-27T03:04:13.020Z,97680.70
2018-06-27T03:06:42.840Z,97673.22
2018-06-27T03:09:12.617Z,97673.55
2018-06-27T03:11:42.311Z,97671.77
2018-06-27T03:14:12.015Z,97674.42
2018-06-27T03:16:41.732Z,97679.17
2018-06-27T03:19:11.376Z,97683.59
2018-06-27T03:21:44.928Z,97675.84
2018-06-27T03:24:14.619Z,97684.61
2018-06-27T03:26:44.255Z,97685.50
2018-06-27T03:29:13.908Z,97680.72
2018-06-27T03:31:43.596Z,97679.84
2018-06-27T03:34:13.155Z,97674.88
2018-06-27T03:36:43.036Z,97672.95
2018-06-27T03:39:12.692Z,97678.80
2018-06-27T03:41:42.559Z,97682.47
2018-06-27T03:44:12.248Z,97683.64
2018-06-27T03:46:42.101Z,97676.80
2018-06-27T03:49:15.668Z,97677.97
2018-06-27T03:51:45.269Z,97681.50
2018-06-27T03:54:14.952Z,97681.66
2018-06-27T03:56:44.688Z,97679.53
2018-06-27T03:59:14.333Z,97674.13
2018-06-27T04:01:44.147Z,97674.67
2018-06-27T04:04:13.779Z,97669.09
2018-06-27T04:06:43.396Z,97672.48
2018-06-27T04:09:13.304Z,97669.88
2018-06-27T04:11:43.161Z,97672.66
2018-06-27T04:14:12.760Z,97675.67
2018-06-27T04:16:42.380Z,97676.49
2018-06-27T04:19:12.040Z,97677.92
2018-06-27T04:21:41.840Z,97675.31
2018-06-27T04:24:11.553Z,97667.38
2018-06-27T04:26:41.317Z,97669.10
2018-06-27T04:29:10.997Z,97663.76
2018-06-27T04:31:40.595Z,97659.54
2018-06-27T04:34:10.251Z,97661.57
2018-06-27T04:36:39.882Z,97672.87
2018-06-27T04:39:10.879Z,97666.74
2018-06-27T04:41:40.907Z,97659.81
2018-06-27T04:44:10.765Z,97654.21
2018-06-27T04:46:40.409Z,97649.72
2018-06-27T04:49:10.294Z,97651.19
2018-06-27T04:51:41.176Z,97646.83
2018-06-27T04:54:10.837Z,97636.70
2018-06-27T04:56:40.496Z,97649.05
2018-06-27T04:59:10.269Z,97642.27
2018-06-27T05:01:41.739Z,97645.53
2018-06-27T05:04:13.135Z,97648.47
2018-06-27T05:06:44.096Z,97647.29
2018-06-27T05:09:17.281Z,97641.62
2018-06-27T05:11:47.058Z,97644.66
2018-06-27T05:14:22.049Z,97641.13
2018-06-27T05:16:52.330Z,97639.14
2018-06-27T05:19:25.162Z,97648.55
2018-06-27T05:21:55.340Z,97648.50
2018-06-27T05:24:26.219Z,97647.16
2018-06-27T05:26:56.672Z,97647.72
2018-06-27T05:29:26.948Z,97645.73
2018-06-27T05:31:57.196Z,97650.75
2018-06-27T05:34:29.447Z,97653.04
2018-06-27T05:37:02.176Z,97648.49
2018-06-27T05:39:33.951Z,97649.38
2018-06-27T05:42:04.864Z,97642.29
2018-06-27T05:44:36.283Z,97647.95
2018-06-27T05:47:06.193Z,97648.08
2018-06-27T05:49:35.856Z,97652.51
2018-06-27T05:52:06.403Z,97645.72
2018-06-27T05:54:37.472Z,97646.79
2018-06-27T05:57:08.353Z,97646.32
2018-06-27T05:59:38.945Z,97641.58
2018-06-27T06:02:08.611Z,97644.17
2018-06-27T06:04:40.573Z,97647.53
2018-06-27T06:07:13.006Z,97642.95
2018-06-27T06:09:44.172Z,97641.05
2018-06-27T06:12:13.761Z,97640.55
2018-06-27T06:14:45.645Z,97638.23
2018-06-27T06:17:15.312Z,97638.51
2018-06-27T06:19:44.927Z,97643.19
2018-06-27T06:22:14.555Z,97637.66
2018-06-27T06:24:45.279Z,97637.83
2018-06-27T06:27:15.647Z,97640.45
2018-06-27T06:29:45.951Z,97634.62
2018-06-27T06:32:15.995Z,97641.81
2018-06-27T06:34:45.668Z,97634.44
2018-06-27T06:37:15.434Z,97633.52
2018-06-27T06:39:45.034Z,97636.58
2018-06-27T06:42:15.008Z,97640.58
2018-06-27T06:44:44.852Z,97636.31
2018-06-27T06:47:14.619Z,97633.47
2018-06-27T06:49:44.353Z,97638.75
2018-06-27T06:52:14.046Z,97640.80
2018-06-27T06:54:43.798Z,97638.20
2018-06-27T06:57:13.487Z,97637.63
2018-06-27T06:59:44.188Z,97642.10
2018-06-27T07:02:13.943Z,97637.08
2018-06-27T07:04:43.785Z,97636.56
2018-06-27T07:07:13.467Z,97638.08
2018-06-27T07:09:43.125Z,97638.17
2018-06-27T07:12:13.377Z,97643.30
2018-06-27T07:14:43.463Z,97639.08
2018-06-27T07:17:13.461Z,97643.66
2018-06-27T07:19:43.320Z,97642.68
2018-06-27T07:22:13.412Z,97640.53
2018-06-27T07:24:44.328Z,97642.16
2018-06-27T07:27:13.945Z,97640.00
2018-06-27T07:29:50.326Z,97648.32
2018-06-27T07:32:19.943Z,97649.13
2018-06-27T07:34:49.646Z,97638.31
2018-06-27T07:37:19.476Z,97640.54
2018-06-27T07:39:49.133Z,97636.97
2018-06-27T07:42:18.744Z,97630.00
2018-06-27T07:44:48.346Z,97632.13
2018-06-27T07:47:17.925Z,97636.05
2018-06-27T07:49:47.887Z,97628.91
2018-06-27T07:52:17.497Z,97628.39
2018-06-27T07:54:47.114Z,97634.05
2018-06-27T07:57:16.757Z,97638.56
2018-06-27T07:59:47.230Z,97637.25
2018-06-27T08:02:16.936Z,97638.00
2018-06-27T08:04:46.604Z,97635.97
2018-06-27T08:07:16.300Z,97635.20
2018-06-27T08:09:45.965Z,97631.45
2018-06-27T08:12:15.814Z,97628.11
2018-06-27T08:17:21.951Z,97633.54
2018-06-27T08:19:51.580Z,97633.77
2018-06-27T08:22:21.430Z,97621.10
2018-06-27T08:24:51.166Z,97620.74
2018-06-27T08:27:20.943Z,97615.80
2018-06-27T08:29:50.604Z,97613.39
2018-06-27T08:34:54.974Z,97615.00
2018-06-27T08:37:24.606Z,97616.56
2018-06-27T08:39:54.276Z,97615.36
2018-06-27T08:44:59.317Z,97614.00
2018-06-27T08:47:29.166Z,97606.34
2018-06-27T08:49:58.923Z,97605.52
2018-06-27T08:52:34.740Z,97599.17
2018-06-27T08:55:04.516Z,97598.64
2018-06-27T08:57:34.290Z,97596.20
2018-06-27T09:00:05.091Z,97600.50
2018-06-27T09:02:34.806Z,97599.15
2018-06-27T09:05:10.801Z,97602.38
2018-06-27T09:07:40.630Z,97601.87
2018-06-27T09:10:10.317Z,97594.90
2018-06-27T09:12:40.105Z,97584.14
2018-06-27T09:15:09.784Z,97594.27
2018-06-27T09:17:39.357Z,97600.05
2018-06-27T09:20:08.954Z,97598.80
2018-06-27T09:22:38.505Z,97592.89
2018-06-27T09:25:08.108Z,97588.00
2018-06-27T09:27:38.716Z,97583.89
2018-06-27T09:30:08.346Z,97587.95
2018-06-27T09:32:37.944Z,97587.84
2018-06-27T09:35:07.821Z,97582.62
2018-06-27T09:37:37.392Z,97577.34
2018-06-27T09:40:06.980Z,97578.22
2018-06-27T09:42:36.571Z,97566.41
2018-06-27T09:45:06.196Z,97569.11
2018-06-27T09:47:37.391Z,97578.15
2018-06-27T09:50:07.193Z,97578.91
2018-06-27T09:52:36.920Z,97574.34
2018-06-27T09:55:06.523Z,97576.80
2018-06-27T09:57:36.215Z,97578.20
2018-06-27T10:00:06.032Z,97572.73
2018-06-27T10:02:35.800Z,97580.64
2018-06-27T10:05:05.537Z,97569.72
2018-06-27T10:07:35.254Z,97580.64
2018-06-27T10:10:04.845Z,97570.41
2018-06-27T10:12:34.542Z,97576.08
2018-06-27T10:15:04.209Z,97577.66
2018-06-27T10:17:33.885Z,97588.06
2018-06-27T10:20:03.554Z,97580.25
2018-06-27T10:22:33.560Z,97577.42
2018-06-27T10:25:03.228Z,97583.76
2018-06-27T10:27:32.800Z,97586.05
2018-06-27T10:30:02.411Z,97580.11
2018-06-27T10:32:32.044Z,97573.46
2018-06-27T10:35:01.965Z,97568.27
2018-06-27T10:37:31.584Z,97565.06
2018-06-27T10:40:01.267Z,97561.84
2018-06-27T10:47:41.336Z,97578.42
2018-06-27T10:50:11.004Z,97577.36
2018-06-27T10:52:40.681Z,97577.63
2018-06-27T10:55:15.723Z,97574.98
2018-06-27T10:57:45.452Z,97581.66
2018-06-27T11:00:15.136Z,97575.74
2018-06-27T11:02:44.797Z,97580.03
2018-06-27T11:05:14.498Z,97571.17
2018-06-27T11:07:44.211Z,97582.84
2018-06-27T11:10:13.952Z,97571.49
2018-06-27T11:12:43.848Z,97573.98
2018-06-27T11:15:14.078Z,97572.11
2018-06-27T11:17:44.304Z,97574.05
2018-06-27T11:20:14.260Z,97585.47
2018-06-27T11:22:43.855Z,97579.97
2018-06-27T11:25:13.669Z,97583.94
2018-06-27T11:27:43.334Z,97580.15
2018-06-27T11:30:13.554Z,97577.30
2018-06-27T11:32:43.834Z,97576.22
2018-06-27T11:35:13.541Z,97574.12
2018-06-27T11:37:44.045Z,97579.04
2018-06-27T11:40:13.727Z,97574.98
2018-06-27T11:42:43.429Z,97581.72
2018-06-27T11:45:13.211Z,97574.20
2018-06-27T11:47:42.832Z,97567.47
2018-06-27T11:50:12.579Z,97581.36
2018-06-27T11:52:42.269Z,97584.61
2018-06-27T11:55:12.464Z,97582.44
2018-06-27T11:57:43.450Z,97588.61
2018-06-27T12:00:13.072Z,97586.98
2018-06-27T12:02:42.702Z,97587.28
2018-06-27T12:05:12.372Z,97590.38
2018-06-27T12:07:42.925Z,97587.17
2018-06-27T12:10:14.753Z,97587.54
2018-06-27T12:12:45.449Z,97586.01
2018-06-27T12:15:15.720Z,97586.01
2018-06-27T12:17:45.936Z,97578.22
2018-06-27T12:20:16.355Z,97582.77
2018-06-27T12:22:47.066Z,97578.47
2018-06-27T12:25:16.705Z,97586.50
2018-06-27T12:27:46.565Z,97581.12
2018-06-27T12:30:21.996Z,97576.28
2018-06-27T12:32:52.175Z,97584.30
2018-06-27T12:35:23.376Z,97583.31
2018-06-27T12:37:53.172Z,97579.22
2018-06-27T12:40:22.810Z,97576.69
2018-06-27T12:42:52.488Z,97572.66
2018-06-27T12:45:22.095Z,97566.64
2018-06-27T12:47:52.467Z,97564.16
2018-06-27T12:50:22.190Z,97562.69
2018-06-27T12:52:51.844Z,97560.44
2018-06-27T12:55:21.440Z,97564.53
2018-06-27T12:57:51.068Z,97561.14
2018-06-27T13:00:20.717Z,97553.02
2018-06-27T13:02:50.405Z,97551.45
2018-06-27T13:05:20.023Z,97539.85
2018-06-27T13:07:50.040Z,97541.48
2018-06-27T13:10:19.698Z,97539.00
2018-06-27T13:12:49.765Z,97538.02
2018-06-27T13:15:19.905Z,97533.47
2018-06-27T13:17:50.134Z,97528.90
2018-06-27T13:20:21.042Z,97525.54
2018-06-27T13:22:51.868Z,97528.45
2018-06-27T13:25:22.170Z,97528.97
2018-06-27T13:27:51.961Z,97540.27
2018-06-27T13:30:22.652Z,97536.06
2018-06-27T13:32:52.476Z,97545.46
2018-06-27T13:35:22.098Z,97533.39
2018-06-27T13:37:51.745Z,97540.84
2018-06-27T13:40:21.310Z,97529.17
2018-06-27T13:42:50.916Z,97533.59
2018-06-27T13:45:20.502Z,97529.17
2018-06-27T13:47:50.152Z,97535.36
2018-06-27T13:50:19.924Z,97535.91
2018-06-27T13:52:49.568Z,97532.04
2018-06-27T13:55:19.257Z,97530.20
2018-06-27T13:57:48.938Z,97528.00
2018-06-27T14:00:19.937Z,97524.30
2018-06-27T14:02:49.643Z,97521.80
2018-06-27T14:05:19.793Z,97520.29
2018-06-27T14:07:50.030Z,97517.55
2018-06-27T14:10:19.666Z,97516.27
2018-06-27T14:12:52.296Z,97508.44
2018-06-27T14:15:21.941Z,97504.25
2018-06-27T14:17:51.871Z,97515.31
2018-06-27T14:20:23.016Z,97510.02
2018-06-27T14:22:52.691Z,97512.44
2018-06-27T14:25:22.379Z,97513.69
2018-06-27T14:27:52.635Z,97514.38
2018-06-27T14:30:22.601Z,97519.95
2018-06-27T14:32:52.318Z,97511.31
2018-06-27T14:35:21.959Z,97512.11
2018-06-27T14:37:52.186Z,97501.58
2018-06-27T14:40:22.950Z,97499.95
2018-06-27T14:42:52.660Z,97495.79
2018-06-27T14:45:22.296Z,97498.72
2018-06-27T14:47:52.131Z,97492.31
2018-06-27T14:50:22.016Z,97492.91
2018-06-27T14:52:52.348Z,97484.52
2018-06-27T14:55:22.050Z,97475.47
2018-06-27T14:57:51.656Z,97475.41
2018-06-27T15:00:21.318Z,97469.65
2018-06-27T15:02:50.924Z,97458.57
2018-06-27T15:05:20.506Z,97454.44
2018-06-27T15:07:50.145Z,97457.69
2018-06-27T15:10:19.800Z,97456.55
2018-06-27T15:12:49.473Z,97456.67
2018-06-27T15:15:19.065Z,97457.39
2018-06-27T15:17:48.891Z,97462.33
2018-06-27T15:20:18.600Z,97452.34
2018-06-27T15:22:48.361Z,97451.64
2018-06-27T15:25:17.972Z,97464.03
2018-06-27T15:27:47.658Z,97470.63
2018-06-27T15:30:17.326Z,97471.41
2018-06-27T15:32:46.916Z,97478.05
2018-06-27T15:35:16.658Z,97472.92
2018-06-27T15:37:46.248Z,97481.27
2018-06-27T15:40:15.942Z,97465.96
2018-06-27T15:42:45.538Z,97469.70
2018-06-27T15:45:15.186Z,97465.67
2018-06-27T15:47:44.845Z,97465.42
2018-06-27T15:50:21.407Z,97439.09
2018-06-27T15:52:51.138Z,97444.34
2018-06-27T15:55:21.028Z,97438.05
2018-06-27T15:57:50.853Z,97435.36
2018-06-27T16:00:20.505Z,97436.44
2018-06-27T16:02:51.959Z,97441.84
2018-06-27T16:05:21.713Z,97438.81
2018-06-27T16:07:51.368Z,97436.02
2018-06-27T16:10:21.072Z,97429.17
2018-06-27T16:12:50.747Z,97427.00
2018-06-27T16:15:20.341Z,97426.36
2018-06-27T16:17:49.975Z,97433.25
2018-06-27T16:20:19.652Z,97423.48
2018-06-27T16:22:49.409Z,97418.38
2018-06-27T16:25:19.116Z,97422.77
2018-06-27T16:27:48.752Z,97427.46
2018-06-27T16:30:18.489Z,97431.84
2018-06-27T16:32:48.798Z,97423.27
2018-06-27T16:35:19.417Z,97421.67
2018-06-27T16:37:49.164Z,97427.84
2018-06-27T16:40:18.871Z,97422.02
2018-06-27T16:42:48.860Z,97423.11
2018-06-27T16:45:18.518Z,97422.72
2018-06-27T16:47:48.152Z,97420.05
2018-06-27T16:50:17.821Z,97425.41
2018-06-27T16:52:48.547Z,97426.95
2018-06-27T16:55:18.127Z,97427.48
2018-06-27T16:57:47.792Z,97426.96
2018-06-27T17:00:17.456Z,97430.12
2018-06-27T17:02:47.051Z,97432.02
2018-06-27T17:05:16.690Z,97429.69
2018-06-27T17:07:46.352Z,97431.87
2018-06-27T17:10:15.925Z,97437.48
2018-06-27T17:12:46.833Z,97437.75
2018-06-27T17:15:16.376Z,97432.13
2018-06-27T17:17:46.124Z,97431.30
2018-06-27T17:20:15.844Z,97433.72
2018-06-27T17:22:46.291Z,97425.95
2018-06-27T17:25:15.909Z,97436.95
2018-06-27T17:27:45.514Z,97426.75
2018-06-27T17:30:15.583Z,97432.66
2018-06-27T17:32:46.018Z,97427.01
2018-06-27T17:35:15.712Z,97435.55
2018-06-27T17:37:46.242Z,97440.68
2018-06-27T17:40:16.521Z,97443.87
2018-06-27T17:42:46.322Z,97445.16
2018-06-27T17:45:16.044Z,97455.45
2018-06-27T17:47:45.760Z,97455.50
2018-06-27T17:53:07.142Z,97453.86
2018-06-27T17:55:36.811Z,97451.38
2018-06-27T17:58:06.373Z,97452.27
2018-06-27T18:00:35.977Z,97458.46
2018-06-27T18:03:05.839Z,97463.52
2018-06-27T18:05:35.509Z,97470.27
2018-06-27T18:08:05.547Z,97478.02
2018-06-27T18:10:35.440Z,97486.59
2018-06-27T18:13:05.114Z,97493.83
2018-06-27T18:15:36.603Z,97500.51
2018-06-27T18:18:06.570Z,97489.52
2018-06-27T18:20:37.780Z,97494.11
2018-06-27T18:23:08.215Z,97490.45
2018-06-27T18:25:38.700Z,97491.31
2018-06-27T18:28:12.036Z,97488.43
2018-06-27T18:30:41.872Z,97494.10
2018-06-27T18:33:11.519Z,97494.59
2018-06-27T18:35:41.171Z,97492.39
2018-06-27T18:38:12.374Z,97499.30
2018-06-27T18:40:49.722Z,97505.00
2018-06-27T18:43:21.293Z,97503.01
2018-06-27T18:45:53.317Z,97500.22
2018-06-27T18:48:22.951Z,97504.84
2018-06-27T18:50:54.509Z,97503.20
2018-06-27T18:53:24.126Z,97516.82
2018-06-27T18:55:55.232Z,97513.41
2018-06-27T18:58:25.265Z,97509.92
2018-06-27T19:00:56.272Z,97515.31
2018-06-27T19:03:28.285Z,97513.19
2018-06-27T19:05:59.912Z,97497.35
2018-06-27T19:08:30.050Z,97515.95
2018-06-27T19:11:01.962Z,97521.95
2018-06-27T19:13:32.429Z,97523.61
2018-06-27T19:16:02.193Z,97526.02
2018-06-27T19:18:31.830Z,97526.88
2018-06-27T19:21:05.444Z,97521.57
2018-06-27T19:23:35.703Z,97524.87
2018-06-27T19:26:07.610Z,97531.86
2018-06-27T19:28:39.024Z,97529.25
2018-06-27T19:31:10.033Z,97525.54
2018-06-27T19:33:41.122Z,97527.74
2018-06-27T19:36:12.754Z,97527.03
2018-06-27T19:38:43.804Z,97526.45
2018-06-27T19:43:52.914Z,97530.72
2018-06-27T19:46:23.395Z,97531.84
2018-06-27T19:48:59.279Z,97531.55
2018-06-27T19:51:30.265Z,97532.39
2018-06-27T19:56:43.303Z,97535.55
2018-06-27T19:59:13.752Z,97539.41
2018-06-27T20:01:44.858Z,97537.84
2018-06-27T20:04:15.048Z,97535.07
2018-06-27T20:06:44.681Z,97542.27
2018-06-27T20:09:14.422Z,97545.67
2018-06-27T20:11:44.647Z,97545.53
2018-06-27T20:14:15.830Z,97551.83
2018-06-27T20:16:45.699Z,97542.05
2018-06-27T20:19:15.481Z,97545.30
2018-06-27T20:21:45.901Z,97548.42
2018-06-27T20:24:15.547Z,97546.55
2018-06-27T20:26:46.870Z,97543.11
2018-06-27T20:29:16.577Z,97542.55
2018-06-27T20:31:46.236Z,97543.77
2018-06-27T20:34:15.883Z,97545.79
2018-06-27T20:36:45.583Z,97538.22
2018-06-27T20:39:15.229Z,97537.20
2018-06-27T20:41:44.992Z,97530.75
2018-06-27T20:44:14.652Z,97528.02
2018-06-27T20:46:44.361Z,97530.61
2018-06-27T20:49:14.166Z,97531.67
2018-06-27T20:51:43.994Z,97517.83
2018-06-27T20:56:42.952Z,97507.29
2018-06-27T20:59:13.223Z,97501.63
2018-06-27T21:01:43.209Z,97497.47
2018-06-27T21:04:12.917Z,97501.42
2018-06-27T21:06:43.105Z,97503.86
2018-06-27T21:09:12.854Z,97505.31
2018-06-27T21:11:43.102Z,97504.02
2018-06-27T21:14:21.011Z,97500.80
2018-06-27T21:16:53.047Z,97499.27
2018-06-27T21:19:22.673Z,97498.25
2018-06-27T21:21:52.261Z,97495.34
2018-06-27T21:24:22.027Z,97505.00
2018-06-27T21:26:51.780Z,97503.13
2018-06-27T21:29:21.413Z,97506.42
2018-06-27T21:31:51.084Z,97509.72
2018-06-27T21:34:20.720Z,97506.91
2018-06-27T21:36:50.733Z,97504.62
2018-06-27T21:39:20.377Z,97501.33
2018-06-27T21:41:50.014Z,97495.16
2018-06-27T21:44:19.671Z,97497.06
2018-06-27T21:46:49.327Z,97494.84
2018-06-27T21:49:18.908Z,97489.05
2018-06-27T21:51:48.508Z,97493.24
2018-06-27T21:54:18.233Z,97485.80
2018-06-27T21:56:48.100Z,97483.71
2018-06-27T21:59:17.764Z,97481.23
2018-06-27T22:01:47.337Z,97473.06
2018-06-27T22:04:17.019Z,97463.14
2018-06-27T22:06:46.594Z,97462.50
2018-06-27T22:09:16.586Z,97455.00
2018-06-27T22:11:46.175Z,97456.37
2018-06-27T22:14:15.854Z,97456.86
2018-06-27T22:16:45.554Z,97453.00
2018-06-27T22:19:15.160Z,97445.00
2018-06-27T22:21:44.892Z,97452.48
2018-06-27T22:24:16.118Z,97446.69
2018-06-27T22:26:45.784Z,97453.27
2018-06-27T22:29:15.449Z,97456.88
2018-06-27T22:31:45.904Z,97457.40
2018-06-27T22:34:19.094Z,97444.77
2018-06-27T22:36:48.816Z,97440.11
2018-06-27T22:39:18.433Z,97434.53
2018-06-27T22:41:48.093Z,97431.34
2018-06-27T22:44:17.735Z,97436.46
2018-06-27T22:46:54.179Z,97427.53
2018-06-27T22:49:24.324Z,97434.06
2018-06-27T22:51:54.120Z,97423.05
2018-06-27T22:54:23.733Z,97421.55
2018-06-27T22:56:53.383Z,97412.97
2018-06-27T22:59:23.021Z,97404.03
2018-06-27T23:01:52.681Z,97395.13
2018-06-27T23:04:22.380Z,97391.95
2018-06-27T23:06:52.083Z,97388.53
2018-06-27T23:09:21.779Z,97389.00
2018-06-27T23:11:51.468Z,97387.83
2018-06-27T23:14:21.103Z,97377.98
2018-06-27T23:16:50.787Z,97372.31
2018-06-27T23:19:20.447Z,97366.09
2018-06-27T23:21:50.107Z,97357.63
2018-06-27T23:24:20.376Z,97363.18
2018-06-27T23:26:50.995Z,97349.06
2018-06-27T23:29:20.599Z,97357.84
2018-06-27T23:31:51.492Z,97351.83
2018-06-27T23:34:22.173Z,97339.04
2018-06-27T23:36:53.108Z,97338.24
2018-06-27T23:39:22.720Z,97314.98
2018-06-27T23:41:52.922Z,97318.41
2018-06-27T23:44:22.556Z,97328.33
2018-06-27T23:46:53.089Z,97321.56
2018-06-27T23:49:22.665Z,97322.08
2018-06-27T23:51:53.148Z,97308.43
2018-06-27T23:54:23.473Z,97289.61
2018-06-27T23:56:53.080Z,97294.69
2018-06-27T23:59:24.404Z,97278.98
